Time,TemperatureF,DewpointF,PressureIn,WindDirection,WindDirectionDegrees,WindSpeedMPH,WindSpeedGustMPH,Humidity,HourlyPrecipIn,Conditions,Clouds,dailyrainin,SoftwareType,DateUTC
2013-06-03 00:01:00,59.6,35.2,29.44,North,7,0.0,3.0,40,0.00,,,0.00,Wunderground v.1.15,2013-06-03 06:01:00,
2013-06-03 00:07:00,59.2,34.2,29.45,North,7,0.0,3.0,39,0.00,,,0.00,Wunderground v.1.15,2013-06-03 06:07:00,
2013-06-03 00:16:00,58.4,33.5,29.45,North,7,0.0,3.0,39,0.00,,,0.00,Wunderground v.1.15,2013-06-03 06:16:00,
2013-06-03 00:21:00,58.1,33.2,29.45,North,7,0.0,3.0,39,0.00,,,0.00,Wunderground v.1.15,2013-06-03 06:21:00,
2013-06-03 00:31:00,57.3,34.4,29.45,North,7,0.0,3.0,42,0.00,,,0.00,Wunderground v.1.15,2013-06-03 06:31:00,
2013-06-03 00:36:00,57.0,34.1,29.43,North,7,0.0,3.0,42,0.00,,,0.00,Wunderground v.1.15,2013-06-03 06:36:00,
2013-06-03 00:41:00,56.7,35.0,29.43,North,7,0.0,3.0,44,0.00,,,0.00,Wunderground v.1.15,2013-06-03 06:41:00,
2013-06-03 00:51:00,56.0,34.9,29.44,North,7,0.0,3.0,45,0.00,,,0.00,Wunderground v.1.15,2013-06-03 06:51:00,
2013-06-03 07:16:00,61.6,29.8,29.42,SSW,212,0.0,3.0,30,0.00,,,0.00,Wunderground v.1.15,2013-06-03 13:16:00,
2013-06-03 07:21:00,63.1,29.4,29.40,SSW,203,0.0,3.0,28,0.00,,,0.00,Wunderground v.1.15,2013-06-03 13:21:00,
2013-06-03 07:26:00,64.2,30.4,29.40,NE,47,0.0,3.0,28,0.00,,,0.00,Wunderground v.1.15,2013-06-03 13:26:00,
2013-06-03 07:31:00,65.2,30.3,29.40,South,171,0.0,3.0,27,0.00,,,0.00,Wunderground v.1.15,2013-06-03 13:31:00,
2013-06-03 07:41:00,66.6,32.5,29.39,NNE,27,0.0,3.0,28,0.00,,,0.00,Wunderground v.1.15,2013-06-03 13:41:00,
2013-06-03 07:51:00,67.9,32.7,29.38,SSE,167,0.0,3.0,27,0.00,,,0.00,Wunderground v.1.15,2013-06-03 13:51:00,
2013-06-03 07:56:00,68.6,34.2,29.38,SSE,167,0.0,3.0,28,0.00,,,0.00,Wunderground v.1.15,2013-06-03 13:56:00,
2013-06-03 08:01:00,69.4,33.0,29.38,SSE,152,0.0,3.0,26,0.00,,,0.00,Wunderground v.1.15,2013-06-03 14:01:00,
2013-06-03 08:11:00,71.3,32.6,29.36,SE,145,0.0,3.0,24,0.00,,,0.00,Wunderground v.1.15,2013-06-03 14:11:00,
2013-06-03 08:16:00,72.0,32.1,29.36,SE,136,0.0,3.0,23,0.00,,,0.00,Wunderground v.1.15,2013-06-03 14:16:00,
2013-06-03 08:21:00,72.5,32.6,29.35,NNW,339,0.0,3.0,23,0.00,,,0.00,Wunderground v.1.15,2013-06-03 14:21:00,
2013-06-03 08:31:00,73.5,32.3,29.35,SSE,157,1.0,3.0,22,0.00,,,0.00,Wunderground v.1.15,2013-06-03 14:31:00,
2013-06-03 08:41:00,74.2,32.9,29.35,SSW,203,1.0,1.0,22,0.00,,,0.00,Wunderground v.1.15,2013-06-03 14:41:00,
2013-06-03 08:46:00,74.7,32.1,29.35,North,0,1.0,2.0,21,0.00,,,0.00,Wunderground v.1.15,2013-06-03 14:46:00,
2013-06-03 08:51:00,75.3,31.4,29.35,South,172,1.0,3.0,20,0.00,,,0.00,Wunderground v.1.15,2013-06-03 14:51:00,
2013-06-03 09:01:00,76.0,32.0,29.35,SW,233,1.0,1.0,20,0.00,,,0.00,Wunderground v.1.15,2013-06-03 15:01:00,
2013-06-03 09:11:00,76.8,37.3,29.35,SSE,158,0.0,3.0,24,0.00,,,0.00,Wunderground v.1.15,2013-06-03 15:11:00,
2013-06-03 09:16:00,77.4,34.4,29.35,NE,35,0.0,3.0,21,0.00,,,0.00,Wunderground v.1.15,2013-06-03 15:16:00,
2013-06-03 09:21:00,78.1,35.0,29.33,ENE,72,0.0,3.0,21,0.00,,,0.00,Wunderground v.1.15,2013-06-03 15:21:00,
2013-06-03 09:26:00,78.8,34.3,29.33,ENE,72,0.0,3.0,20,0.00,,,0.00,Wunderground v.1.15,2013-06-03 15:26:00,
2013-06-03 09:36:00,79.9,33.9,29.35,ESE,104,0.0,3.0,19,0.00,,,0.00,Wunderground v.1.15,2013-06-03 15:36:00,
2013-06-03 09:41:00,80.5,34.4,29.35,South,171,0.0,3.0,19,0.00,,,0.00,Wunderground v.1.15,2013-06-03 15:41:00,
2013-06-03 09:51:00,81.2,30.7,29.34,South,191,1.0,3.0,16,0.00,,,0.00,Wunderground v.1.15,2013-06-03 15:51:00,
2013-06-03 09:56:00,81.4,33.8,29.34,South,191,0.0,3.0,18,0.00,,,0.00,Wunderground v.1.15,2013-06-03 15:56:00,
2013-06-03 10:01:00,82.0,32.9,29.34,SSW,192,0.0,3.0,17,0.00,,,0.00,Wunderground v.1.15,2013-06-03 16:01:00,
2013-06-03 10:07:00,82.6,34.8,29.33,SSW,192,0.0,3.0,18,0.00,,,0.00,Wunderground v.1.15,2013-06-03 16:07:00,
2013-06-03 10:16:00,83.4,32.5,29.33,South,185,0.0,3.0,16,0.00,,,0.00,Wunderground v.1.15,2013-06-03 16:16:00,
2013-06-03 10:21:00,84.0,31.4,29.31,SSW,213,0.0,6.0,15,0.00,,,0.00,Wunderground v.1.15,2013-06-03 16:21:00,
2013-06-03 10:26:00,84.5,30.1,29.31,SSW,213,1.0,6.0,14,0.00,,,0.00,Wunderground v.1.15,2013-06-03 16:26:00,
2013-06-03 10:31:00,85.1,32.2,29.31,SSW,213,0.0,3.0,15,0.00,,,0.00,Wunderground v.1.15,2013-06-03 16:31:00,
2013-06-03 13:26:00,89.3,27.9,29.34,South,176,1.0,3.0,11,0.00,,,0.00,Wunderground v.1.15,2013-06-03 19:26:00,
2013-06-03 13:31:00,89.9,26.0,29.34,SSW,195,1.0,3.0,10,0.00,,,0.00,Wunderground v.1.15,2013-06-03 19:31:00,
2013-06-03 13:41:00,89.9,32.5,29.35,SSW,208,2.0,3.0,13,0.00,,,0.00,Wunderground v.1.15,2013-06-03 19:41:00,
2013-06-03 13:46:00,89.9,30.5,29.35,SSW,193,2.0,3.0,12,0.00,,,0.00,Wunderground v.1.15,2013-06-03 19:46:00,
2013-06-03 13:51:00,90.1,26.2,29.35,SW,217,2.0,2.0,10,0.00,,,0.00,Wunderground v.1.15,2013-06-03 19:51:00,
2013-06-03 13:56:00,89.5,25.7,29.35,SW,220,1.0,3.0,10,0.00,,,0.00,Wunderground v.1.15,2013-06-03 19:56:00,
2013-06-03 14:11:00,88.8,29.6,29.35,NNW,335,1.0,3.0,12,0.00,,,0.00,Wunderground v.1.15,2013-06-03 20:11:00,
2013-06-03 14:21:00,89.0,25.3,29.34,SSW,193,1.0,3.0,10,0.00,,,0.00,Wunderground v.1.15,2013-06-03 20:21:00,
2013-06-03 14:26:00,88.2,29.2,29.34,SSW,203,1.0,3.0,12,0.00,,,0.00,Wunderground v.1.15,2013-06-03 20:26:00,
2013-06-03 14:31:00,87.8,28.9,29.34,SSW,198,1.0,3.0,12,0.00,,,0.00,Wunderground v.1.15,2013-06-03 20:31:00,
2013-06-03 14:36:00,87.6,26.6,29.36,South,188,1.0,3.0,11,0.00,,,0.00,Wunderground v.1.15,2013-06-03 20:36:00,
2013-06-03 14:46:00,88.0,24.6,29.36,South,176,1.0,5.0,10,0.00,,,0.00,Wunderground v.1.15,2013-06-03 20:46:00,
2013-06-03 14:56:00,87.0,23.8,29.36,SSW,206,2.0,3.0,10,0.00,,,0.00,Wunderground v.1.15,2013-06-03 20:56:00,
2013-06-03 15:01:00,86.5,27.8,29.36,SSE,161,1.0,3.0,12,0.00,,,0.00,Wunderground v.1.15,2013-06-03 21:01:00,
2013-06-03 15:11:00,86.3,23.3,29.36,South,176,0.0,3.0,10,0.00,,,0.00,Wunderground v.1.15,2013-06-03 21:11:00,
2013-06-03 15:21:00,85.9,25.3,29.37,SSW,199,1.0,1.0,11,0.00,,,0.00,Wunderground v.1.15,2013-06-03 21:21:00,
2013-06-03 15:26:00,85.9,29.3,29.37,SSW,206,1.0,3.0,13,0.00,,,0.00,Wunderground v.1.15,2013-06-03 21:26:00,
2013-06-03 15:31:00,85.9,23.0,29.37,SSW,206,1.0,1.0,10,0.00,,,0.00,Wunderground v.1.15,2013-06-03 21:31:00,
2013-06-03 15:41:00,85.7,20.3,29.37,South,182,1.0,1.0,9,0.00,,,0.00,Wunderground v.1.15,2013-06-03 21:41:00,
2013-06-03 15:46:00,85.5,22.7,29.37,South,182,1.0,3.0,10,0.00,,,0.00,Wunderground v.1.15,2013-06-03 21:46:00,
2013-06-03 15:51:00,85.5,22.7,29.37,South,182,0.0,3.0,10,0.00,,,0.00,Wunderground v.1.15,2013-06-03 21:51:00,
2013-06-03 16:01:00,85.3,22.5,29.37,South,182,0.0,3.0,10,0.00,,,0.00,Wunderground v.1.15,2013-06-03 22:01:00,
2013-06-03 16:11:00,85.3,22.5,29.38,South,182,0.0,3.0,10,0.00,,,0.00,Wunderground v.1.15,2013-06-03 22:11:00,
2013-06-03 16:16:00,85.3,30.7,29.38,South,182,0.0,3.0,14,0.00,,,0.00,Wunderground v.1.15,2013-06-03 22:16:00,
2013-06-03 16:21:00,85.5,25.0,29.38,SSW,208,1.0,3.0,11,0.00,,,0.00,Wunderground v.1.15,2013-06-03 22:21:00,
2013-06-03 16:26:00,86.3,27.7,29.38,SSW,210,1.0,3.0,12,0.00,,,0.00,Wunderground v.1.15,2013-06-03 22:26:00,
2013-06-03 16:31:00,87.6,26.6,29.38,South,186,1.0,3.0,11,0.00,,,0.00,Wunderground v.1.15,2013-06-03 22:31:00,
2013-06-03 16:41:00,88.4,27.2,29.35,SSW,209,3.0,3.0,11,0.00,,,0.00,Wunderground v.1.15,2013-06-03 22:41:00,
2013-06-03 16:57:00,88.6,27.3,29.36,South,186,3.0,3.0,11,0.00,,,0.00,Wunderground v.1.15,2013-06-03 22:57:00,
2013-06-03 17:11:00,88.8,27.5,29.36,SSW,198,2.0,3.0,11,0.00,,,0.00,Wunderground v.1.15,2013-06-03 23:11:00,
2013-06-03 17:16:00,88.6,27.3,29.36,SSW,203,2.0,3.0,11,0.00,,,0.00,Wunderground v.1.15,2013-06-03 23:16:00,
2013-06-03 17:21:00,88.4,27.2,29.36,South,181,2.0,3.0,11,0.00,,,0.00,Wunderground v.1.15,2013-06-03 23:21:00,
2013-06-03 17:26:00,88.2,27.0,29.36,SSE,167,2.0,3.0,11,0.00,,,0.00,Wunderground v.1.15,2013-06-03 23:26:00,
2013-06-03 17:31:00,88.2,24.7,29.36,South,188,2.0,3.0,10,0.00,,,0.00,Wunderground v.1.15,2013-06-03 23:31:00,
2013-06-03 17:41:00,88.0,26.9,29.35,South,191,1.0,3.0,11,0.00,,,0.00,Wunderground v.1.15,2013-06-03 23:41:00,
2013-06-03 17:46:00,88.0,29.0,29.35,South,191,1.0,3.0,12,0.00,,,0.00,Wunderground v.1.15,2013-06-03 23:46:00,
2013-06-03 17:51:00,87.8,26.7,29.35,SW,219,1.0,3.0,11,0.00,,,0.00,Wunderground v.1.15,2013-06-03 23:51:00,
2013-06-03 17:56:00,87.8,28.9,29.35,SW,220,1.0,6.0,12,0.00,,,0.00,Wunderground v.1.15,2013-06-03 23:56:00,
2013-06-03 18:11:00,86.5,27.8,29.35,South,178,2.0,2.0,12,0.00,,,0.00,Wunderground v.1.15,2013-06-04 00:11:00,
2013-06-03 18:16:00,86.5,29.8,29.35,SSW,196,2.0,3.0,13,0.00,,,0.00,Wunderground v.1.15,2013-06-04 00:16:00,
2013-06-03 18:21:00,86.5,25.7,29.36,South,186,1.0,1.0,11,0.00,,,0.00,Wunderground v.1.15,2013-06-04 00:21:00,
2013-06-03 18:26:00,86.1,25.4,29.36,SSW,208,2.0,3.0,11,0.00,,,0.00,Wunderground v.1.15,2013-06-04 00:26:00,
2013-06-03 18:31:00,85.9,25.3,29.36,SE,144,2.0,3.0,11,0.00,,,0.00,Wunderground v.1.15,2013-06-04 00:31:00,
2013-06-03 18:41:00,84.7,28.4,29.33,East,80,3.0,5.0,13,0.00,,,0.00,Wunderground v.1.15,2013-06-04 00:41:00,
2013-06-03 18:51:00,83.6,27.5,29.34,SSW,212,3.0,3.0,13,0.00,,,0.00,Wunderground v.1.15,2013-06-04 00:51:00,
2013-06-03 18:56:00,83.2,27.2,29.34,SSW,209,3.0,7.0,13,0.00,,,0.00,Wunderground v.1.15,2013-06-04 00:56:00,
2013-06-03 19:11:00,81.2,29.1,29.37,SE,140,2.0,3.0,15,0.00,,,0.00,Wunderground v.1.15,2013-06-04 01:11:00,
2013-06-03 19:16:00,80.7,28.7,29.37,SW,219,3.0,4.0,15,0.00,,,0.00,Wunderground v.1.15,2013-06-04 01:16:00,
2013-06-03 19:26:00,79.8,31.1,29.38,SSW,212,2.0,3.0,17,0.00,,,0.00,Wunderground v.1.15,2013-06-04 01:26:00,
2013-06-03 19:31:00,79.4,29.3,29.38,SW,215,2.0,2.0,16,0.00,,,0.00,Wunderground v.1.15,2013-06-04 01:31:00,
2013-06-03 19:36:00,79.0,28.9,29.34,South,181,2.0,3.0,16,0.00,,,0.00,Wunderground v.1.15,2013-06-04 01:36:00,
2013-06-03 19:46:00,78.6,30.1,29.34,South,179,1.0,3.0,17,0.00,,,0.00,Wunderground v.1.15,2013-06-04 01:46:00,
2013-06-03 19:51:00,78.6,31.5,29.35,South,184,1.0,1.0,18,0.00,,,0.00,Wunderground v.1.15,2013-06-04 01:51:00,
2013-06-03 20:01:00,78.5,30.0,29.35,South,185,0.0,3.0,17,0.00,,,0.00,Wunderground v.1.15,2013-06-04 02:01:00,
2013-06-03 20:07:00,78.5,30.0,29.36,South,185,1.0,3.0,17,0.00,,,0.00,Wunderground v.1.15,2013-06-04 02:07:00,
2013-06-03 20:16:00,78.3,29.9,29.36,South,174,1.0,3.0,17,0.00,,,0.00,Wunderground v.1.15,2013-06-04 02:16:00,
2013-06-03 20:21:00,78.3,29.9,29.36,South,174,1.0,1.0,17,0.00,,,0.00,Wunderground v.1.15,2013-06-04 02:21:00,
2013-06-03 20:31:00,78.5,30.0,29.36,South,179,1.0,1.0,17,0.00,,,0.00,Wunderground v.1.15,2013-06-04 02:31:00,
2013-06-03 20:36:00,78.6,28.6,29.34,South,181,1.0,3.0,16,0.00,,,0.00,Wunderground v.1.15,2013-06-04 02:36:00,
2013-06-03 20:46:00,78.6,28.6,29.34,South,182,1.0,3.0,16,0.00,,,0.00,Wunderground v.1.15,2013-06-04 02:46:00,
2013-06-03 20:51:00,78.5,30.0,29.34,South,182,1.0,1.0,17,0.00,,,0.00,Wunderground v.1.15,2013-06-04 02:51:00,
2013-06-03 21:01:00,78.1,29.7,29.34,South,182,0.0,3.0,17,0.00,,,0.00,Wunderground v.1.15,2013-06-04 03:01:00,
2013-06-03 21:11:00,77.6,32.1,29.35,South,182,0.0,3.0,19,0.00,,,0.00,Wunderground v.1.15,2013-06-04 03:11:00,
2013-06-03 21:16:00,77.4,31.9,29.35,South,182,0.0,3.0,19,0.00,,,0.00,Wunderground v.1.15,2013-06-04 03:16:00,
2013-06-03 21:21:00,77.0,31.6,29.37,South,182,0.0,3.0,19,0.00,,,0.00,Wunderground v.1.15,2013-06-04 03:21:00,
2013-06-03 21:26:00,76.7,31.3,29.37,South,182,0.0,3.0,19,0.00,,,0.00,Wunderground v.1.15,2013-06-04 03:26:00,
2013-06-03 21:36:00,75.6,32.9,29.36,South,182,0.0,3.0,21,0.00,,,0.00,Wunderground v.1.15,2013-06-04 03:36:00,
2013-06-03 21:41:00,74.7,32.1,29.36,South,182,0.0,3.0,21,0.00,,,0.00,Wunderground v.1.15,2013-06-04 03:41:00,
2013-06-03 21:46:00,74.2,34.0,29.36,South,182,0.0,3.0,23,0.00,,,0.00,Wunderground v.1.15,2013-06-04 03:46:00,
2013-06-03 21:56:00,72.8,32.8,29.37,South,182,0.0,3.0,23,0.00,,,0.00,Wunderground v.1.15,2013-06-04 03:56:00,
2013-06-03 22:01:00,72.0,34.2,29.37,South,182,0.0,3.0,25,0.00,,,0.00,Wunderground v.1.15,2013-06-04 04:01:00,
2013-06-03 22:11:00,70.6,35.0,29.39,South,182,0.0,3.0,27,0.00,,,0.00,Wunderground v.1.15,2013-06-04 04:11:00,
2013-06-03 22:16:00,69.9,34.4,29.39,South,182,0.0,3.0,27,0.00,,,0.00,Wunderground v.1.15,2013-06-04 04:16:00,
2013-06-03 22:21:00,69.3,33.9,29.41,South,182,0.0,3.0,27,0.00,,,0.00,Wunderground v.1.15,2013-06-04 04:21:00,
2013-06-03 22:31:00,68.1,34.6,29.41,South,182,0.0,3.0,29,0.00,,,0.00,Wunderground v.1.15,2013-06-04 04:31:00,
2013-06-03 22:36:00,67.6,35.0,29.41,South,182,0.0,3.0,30,0.00,,,0.00,Wunderground v.1.15,2013-06-04 04:36:00,
2013-06-03 22:41:00,67.1,36.2,29.41,South,182,0.0,3.0,32,0.00,,,0.00,Wunderground v.1.15,2013-06-04 04:41:00,
2013-06-03 22:46:00,67.1,30.1,29.41,South,184,0.0,3.0,25,0.00,,,0.00,Wunderground v.1.15,2013-06-04 04:46:00,
2013-06-03 22:56:00,68.8,27.2,29.45,NE,48,0.0,3.0,21,0.00,,,0.00,Wunderground v.1.15,2013-06-04 04:56:00,
2013-06-03 23:01:00,69.4,26.6,29.45,North,350,0.0,3.0,20,0.00,,,0.00,Wunderground v.1.15,2013-06-04 05:01:00,
2013-06-03 23:11:00,70.3,26.1,29.44,NE,45,0.0,3.0,19,0.00,,,0.00,Wunderground v.1.15,2013-06-04 05:11:00,
2013-06-03 23:21:00,70.6,26.3,29.44,North,356,0.0,3.0,19,0.00,,,0.00,Wunderground v.1.15,2013-06-04 05:21:00,
2013-06-03 23:26:00,70.4,26.1,29.44,NNW,344,0.0,3.0,19,0.00,,,0.00,Wunderground v.1.15,2013-06-04 05:26:00,
2013-06-03 23:31:00,70.3,24.8,29.44,NNW,343,0.0,3.0,18,0.00,,,0.00,Wunderground v.1.15,2013-06-04 05:31:00,
2013-06-03 23:41:00,69.9,24.4,29.45,NNW,343,0.0,3.0,18,0.00,,,0.00,Wunderground v.1.15,2013-06-04 05:41:00,
2013-06-03 23:46:00,69.6,24.2,29.45,NNW,346,0.0,3.0,18,0.00,,,0.00,Wunderground v.1.15,2013-06-04 05:46:00,
2013-06-03 23:56:00,69.1,23.8,29.46,North,352,0.0,3.0,18,0.00,,,0.00,Wunderground v.1.15,2013-06-04 05:56:00,